Time;durP1;ratioP1;P1;durP2;ratioP2;P2;SDS_P1;SDS_P2;PMS_P1;PMS_P2;Temp;Humidity;BMP_temperature;BMP_pressure;BME280_temperature;BME280_humidity;BME280_pressure;Samples;Min_cycle;Max_cycle;Signal;HPM_P1;HPM_P2
2023/10/24 02:40:56;;;;;;;;;;;;;;;12.75;89.37;98937.78;1088309;54;1938;-82
2023/10/24 02:59:11;;;;;;;;;;;;;;;;;;;;;
2023/10/24 03:07:05;;;;;;;;;;;;;;;12.85;88.27;98947.41;1088935;46;1382;-82
2023/10/24 03:08:06;;;;;;;;;;;;;;;12.85;88.18;98958.94;1088235;46;986;-80
2023/10/24 03:09:10;;;;;;;;;;;;;;;12.83;88.23;98960.16;1087676;47;1077;-81
2023/10/24 03:10:12;;;;;;;;;;;;;;;12.87;88.51;98959.59;1088024;54;1090;-83
2023/10/24 03:11:22;;;;;;;;;;;;;;;12.88;88.33;98958.59;1088538;46;938;-83
2023/10/24 03:12:22;;;;;;;;;;;;;;;12.91;88.03;98955.53;1088480;47;968;-83
2023/10/24 03:13:25;;;;;;;;;;;;;;;12.90;88.50;98956.56;1088487;54;1858;-81
2023/10/24 03:14:29;;;;;;;;;;;;;;;12.88;88.63;98969.31;1088530;54;1154;-83
2023/10/24 03:15:30;;;;;;;;;;;;;;;12.92;88.64;98967.09;1088462;47;941;-83
2023/10/24 03:16:33;;;;;;;;;;;;;;;12.92;88.07;98976.00;1088468;54;1452;-82
2023/10/24 03:17:34;;;;;;;;;;;;;;;12.95;88.13;98977.47;1088500;47;1042;-84
2023/10/24 03:18:37;;;;;;;;;;;;;;;12.96;88.00;98976.44;1088539;47;936;-82
2023/10/24 03:19:38;;;;;;;;;;;;;;;12.96;87.77;98965.72;1088296;54;1000;-81
2023/10/24 03:20:43;;;;;;;;;;;;;;;12.92;88.31;98967.94;1088412;54;968;-81
2023/10/24 03:21:49;;;;;;;;;;;;;;;12.90;88.95;98961.94;1088635;54;1020;-80
2023/10/24 03:22:55;;;;;;;;;;;;;;;12.93;88.71;98977.66;1088414;47;1107;-82
2023/10/24 03:23:56;;;;;;;;;;;;;;;12.92;88.58;98959.91;1088682;46;932;-82
2023/10/24 03:25:00;;;;;;;;;;;;;;;12.93;88.99;98966.94;1088426;54;998;-82
2023/10/24 03:26:03;;;;;;;;;;;;;;;12.95;88.64;98975.59;1088326;47;951;-82
2023/10/24 03:27:11;;;;;;;;;;;;;;;12.97;88.17;98978.13;1088205;54;1277;-82
2023/10/24 03:28:14;;;;;;;;;;;;;;;12.99;88.12;98977.91;1088243;47;953;-82
2023/10/24 03:29:17;;;;;;;;;;;;;;;13.00;87.92;98983.09;1088200;47;993;-83
2023/10/24 03:30:34;;;;;;;;;;;;;;;12.99;88.35;98981.41;1088075;54;934;-83
2023/10/24 03:36:36;;;;;;;;;;;;;;;12.78;90.50;98958.88;1088293;46;958;-81
2023/10/24 04:00:13;;;;;;;;;;;;;;;12.54;92.51;98924.28;2135684;54;52216;-82
2023/10/24 04:01:29;;;;;;;;;;;;;;;12.55;92.90;98924.13;1090176;46;870;-81
2023/10/24 04:02:35;;;;;;;;;;;;;;;12.55;92.34;98921.44;1089937;46;904;-81
2023/10/24 04:03:42;;;;;;;;;;;;;;;12.58;92.03;98922.91;1089889;46;951;-81
2023/10/24 04:04:49;;;;;;;;;;;;;;;12.61;91.06;98920.69;1089837;46;996;-80
2023/10/24 04:06:34;;;;;;;;;;;;;;;12.67;90.83;98918.28;1090186;46;1082;-81
2023/10/24 04:12:47;;;;;;;;;;;;;;;12.77;90.54;98934.91;1089885;47;1005;-83
2023/10/24 04:14:29;;;;;;;;;;;;;;;12.76;91.08;98934.09;1090049;54;1009;-81
2023/10/24 04:41:46;;;;;;;;;;;;;;;;;;;;;
2023/10/24 04:43:08;;;;;;;;;;;;;;;12.16;97.05;98864.41;1090632;46;1062;-82
2023/10/24 04:44:19;;;;;;;;;;;;;;;12.19;96.79;98876.59;1090016;46;1220;-82
2023/10/24 04:54:13;;;;;;;;;;;;;;;;;;;;;
2023/10/24 04:55:42;;;;;;;;;;;;;;;12.47;93.00;98867.91;1090288;54;1132;-83
2023/10/24 04:57:04;;;;;;;;;;;;;;;12.44;92.97;98870.97;1090113;47;1853;-83
2023/10/24 04:58:15;;;;;;;;;;;;;;;12.51;92.79;98871.06;1090183;46;988;-82
2023/10/24 05:06:03;;;;;;;;;;;;;;;;;;;;;
2023/10/24 05:23:12;;;;;;;;;;;;;;;12.73;90.37;98842.47;1088599;47;1517;-82
2023/10/24 06:02:42;;;;;;;;;;;;;;;12.92;88.72;98803.47;1088435;54;1679;-83
2023/10/24 06:13:28;;;;;;;;;;;;;;;12.97;90.21;98797.53;1087944;47;976;-82
2023/10/24 06:33:31;;;;;;;;;;;;;;;12.84;90.23;98844.69;1088040;47;943;-83
2023/10/24 06:51:29;;;;;;;;;;;;;;;12.60;92.24;98872.63;1088505;47;1717;-82
2023/10/24 07:43:46;;;;;;;;;;;;;;;;;;;;;
2023/10/24 07:49:59;;;;;;;;;;;;;;;13.05;89.33;98851.91;1088395;47;1513;-81
2023/10/24 08:05:04;;;;;;;;;;;;;;;13.13;89.63;98842.06;1088255;47;1101;-81
2023/10/24 08:06:06;;;;;;;;;;;;;;;13.16;89.45;98839.03;1087714;54;975;-82
2023/10/24 08:07:10;;;;;;;;;;;;;;;13.20;89.46;98843.81;1088115;54;1250;-81
2023/10/24 08:08:11;;;;;;;;;;;;;;;13.21;88.98;98840.13;1088310;51;1417;-82
2023/10/24 08:09:28;;;;;;;;;;;;;;;13.22;89.02;98827.50;1088440;54;942;-82
2023/10/24 08:10:31;;;;;;;;;;;;;;;13.18;89.41;98823.53;1088153;47;1314;-80
2023/10/24 08:11:35;;;;;;;;;;;;;;;13.12;89.84;98833.22;1088190;54;1025;-81
2023/10/24 08:12:39;;;;;;;;;;;;;;;13.16;90.21;98829.09;1088216;54;947;-82
2023/10/24 08:13:44;;;;;;;;;;;;;;;13.20;89.95;98832.22;1088535;54;953;-82
2023/10/24 08:14:56;;;;;;;;;;;;;;;13.21;89.53;98836.59;1088575;47;1525;-83
2023/10/24 08:16:00;;;;;;;;;;;;;;;13.24;89.34;98842.38;1088523;54;979;-81
2023/10/24 08:17:06;;;;;;;;;;;;;;;13.26;89.12;98840.34;1088331;47;1868;-82
2023/10/24 08:18:12;;;;;;;;;;;;;;;13.29;89.43;98849.06;1088556;54;959;-81
2023/10/24 08:19:14;;;;;;;;;;;;;;;13.28;89.29;98842.84;1088343;54;1003;-80
2023/10/24 08:20:20;;;;;;;;;;;;;;;13.29;89.48;98849.88;1087865;47;914;-81
2023/10/24 08:21:22;;;;;;;;;;;;;;;13.31;89.30;98838.97;1088003;47;944;-79
2023/10/24 08:22:26;;;;;;;;;;;;;;;13.31;89.62;98847.00;1088021;54;1059;-81
2023/10/24 08:23:30;;;;;;;;;;;;;;;13.30;89.67;98846.16;1087934;47;1002;-80
2023/10/24 08:24:32;;;;;;;;;;;;;;;13.30;89.99;98850.72;1087812;47;1106;-80
2023/10/24 08:25:35;;;;;;;;;;;;;;;13.29;89.78;98857.91;1088300;47;1038;-82
2023/10/24 08:26:42;;;;;;;;;;;;;;;13.32;89.72;98854.84;1087686;47;1276;-82
2023/10/24 08:27:48;;;;;;;;;;;;;;;13.16;89.29;98849.75;1088014;54;1020;-81
2023/10/24 08:28:54;;;;;;;;;;;;;;;13.10;90.31;98856.72;1087966;54;1153;-81
2023/10/24 08:30:03;;;;;;;;;;;;;;;13.06;90.45;98847.38;1088095;47;960;-82
2023/10/24 08:31:04;;;;;;;;;;;;;;;13.05;91.36;98851.06;1088083;47;945;-80
2023/10/24 08:32:11;;;;;;;;;;;;;;;13.01;91.12;98857.84;1087968;54;1093;-80
2023/10/24 08:33:14;;;;;;;;;;;;;;;13.01;91.79;98860.53;1088000;47;1138;-80
2023/10/24 08:34:26;;;;;;;;;;;;;;;13.01;91.72;98860.53;1088076;47;968;-82
2023/10/24 08:35:49;;;;;;;;;;;;;;;;;;;;;
2023/10/24 08:36:57;;;;;;;;;;;;;;;13.02;92.34;98857.66;1087881;54;1840;-81
2023/10/24 08:38:04;;;;;;;;;;;;;;;12.98;92.62;98864.44;1087974;54;1005;-81
2023/10/24 08:39:06;;;;;;;;;;;;;;;13.03;92.33;98863.88;1087874;54;956;-81
2023/10/24 08:40:11;;;;;;;;;;;;;;;13.00;92.57;98857.00;1087815;47;904;-81
2023/10/24 08:41:29;;;;;;;;;;;;;;;13.01;92.47;98860.53;1088186;54;971;-81
2023/10/24 08:42:48;;;;;;;;;;;;;;;12.96;93.31;98858.41;1087830;47;859;-81
2023/10/24 08:43:49;;;;;;;;;;;;;;;12.97;93.30;98852.03;1088205;47;880;-81
2023/10/24 08:44:53;;;;;;;;;;;;;;;13.02;92.83;98846.09;1088341;54;986;-81
2023/10/24 08:45:54;;;;;;;;;;;;;;;13.07;92.56;98849.03;1088418;47;1006;-82
2023/10/24 08:47:00;;;;;;;;;;;;;;;13.10;92.29;98849.47;1088244;47;1314;-81
2023/10/24 08:48:05;;;;;;;;;;;;;;;13.09;92.39;98844.31;1088255;54;988;-81
2023/10/24 08:49:13;;;;;;;;;;;;;;;13.10;92.53;98845.97;1088123;47;972;-80
2023/10/24 08:50:13;;;;;;;;;;;;;;;13.07;92.74;98849.88;1088071;47;880;-81
2023/10/24 08:51:20;;;;;;;;;;;;;;;13.06;93.10;98840.16;1088133;54;1047;-80
2023/10/24 08:52:21;;;;;;;;;;;;;;;13.11;93.00;98840.41;1088137;54;975;-80
2023/10/24 08:53:26;;;;;;;;;;;;;;;13.03;92.90;98837.03;1088136;54;936;-81
2023/10/24 08:54:27;;;;;;;;;;;;;;;13.06;93.15;98842.84;1087903;54;952;-80
2023/10/24 08:55:31;;;;;;;;;;;;;;;12.99;93.45;98844.59;1088142;47;888;-80
2023/10/24 08:56:33;;;;;;;;;;;;;;;12.97;93.80;98837.78;1088027;47;1286;-80
2023/10/24 08:57:39;;;;;;;;;;;;;;;12.98;93.75;98842.97;1088296;46;1881;-81
2023/10/24 08:58:52;;;;;;;;;;;;;;;13.06;93.62;98839.31;1088406;46;950;-81
2023/10/24 08:59:57;;;;;;;;;;;;;;;13.13;93.32;98845.56;1088296;47;939;-80
2023/10/24 09:01:01;;;;;;;;;;;;;;;13.16;93.07;98839.03;1087981;47;957;-80
2023/10/24 09:02:07;;;;;;;;;;;;;;;13.16;92.84;98845.19;1088082;54;988;-81
2023/10/24 09:03:08;;;;;;;;;;;;;;;13.18;92.42;98848.53;1088838;54;1004;-83
2023/10/24 09:04:17;;;;;;;;;;;;;;;13.21;92.59;98844.63;1088733;54;1018;-83
2023/10/24 09:05:24;;;;;;;;;;;;;;;13.19;92.02;98847.50;1088349;54;1191;-82
2023/10/24 09:06:31;;;;;;;;;;;;;;;13.21;92.20;98853.53;1088272;47;1357;-80
2023/10/24 09:07:40;;;;;;;;;;;;;;;13.22;91.82;98849.81;1088436;54;959;-81
2023/10/24 09:08:43;;;;;;;;;;;;;;;13.23;91.58;98848.78;1088193;47;969;-79
2023/10/24 09:09:43;;;;;;;;;;;;;;;13.23;91.53;98856.81;1088557;54;1038;-81
2023/10/24 09:10:51;;;;;;;;;;;;;;;13.25;91.57;98854.78;1088703;46;989;-80
2023/10/24 09:12:03;;;;;;;;;;;;;;;13.26;91.53;98840.34;1088469;46;937;-81
2023/10/24 09:13:09;;;;;;;;;;;;;;;13.28;91.08;98848.19;1088473;54;966;-81
2023/10/24 09:14:11;;;;;;;;;;;;;;;13.26;91.11;98848.41;1088522;54;912;-81
2023/10/24 09:15:14;;;;;;;;;;;;;;;13.32;91.16;98854.03;1088531;54;1007;-81
2023/10/24 09:16:23;;;;;;;;;;;;;;;13.30;91.03;98859.59;1088306;54;1237;-81
2023/10/24 09:17:24;;;;;;;;;;;;;;;13.31;90.70;98857.75;1088282;47;1856;-81
2023/10/24 09:18:37;;;;;;;;;;;;;;;13.32;90.84;98857.53;1088399;54;991;-81
2023/10/24 09:19:39;;;;;;;;;;;;;;;13.34;90.79;98858.19;1088456;47;979;-80
2023/10/24 09:20:56;;;;;;;;;;;;;;;13.36;90.76;98852.63;1088377;46;1092;-81
2023/10/24 09:23:35;;;;;;;;;;;;;;;13.36;90.32;98864.22;1088844;47;918;-81
2023/10/24 09:24:36;;;;;;;;;;;;;;;13.35;89.76;98861.69;1088960;46;938;-80
2023/10/24 09:25:40;;;;;;;;;;;;;;;13.35;90.03;98861.69;1088829;54;1427;-80
2023/10/24 09:28:24;;;;;;;;;;;;;;;13.35;89.81;98859.00;1088807;47;988;-80
2023/10/24 09:29:27;;;;;;;;;;;;;;;13.32;89.84;98865.59;1088126;47;940;-81
2023/10/24 09:30:35;;;;;;;;;;;;;;;13.33;89.97;98867.25;1088276;54;1297;-81
2023/10/24 09:31:39;;;;;;;;;;;;;;;13.35;90.10;98867.91;1088348;46;1102;-81
2023/10/24 09:32:46;;;;;;;;;;;;;;;13.35;90.38;98872.44;1088587;46;1056;-82
2023/10/24 09:33:47;;;;;;;;;;;;;;;13.38;90.57;98872.06;1088377;54;1210;-83
2023/10/24 09:34:51;;;;;;;;;;;;;;;13.40;90.48;98862.00;1088406;47;1070;-80
2023/10/24 09:35:52;;;;;;;;;;;;;;;13.31;90.74;98868.47;1088357;47;894;-83
2023/10/24 09:37:10;;;;;;;;;;;;;;;;;;;;;
2023/10/24 09:38:19;;;;;;;;;;;;;;;13.38;91.07;98872.06;1088490;54;805;-84
2023/10/24 09:39:30;;;;;;;;;;;;;;;13.42;90.69;98859.94;1088548;54;964;-83
2023/10/24 09:40:46;;;;;;;;;;;;;;;13.45;90.89;98859.56;1088560;54;929;-81
2023/10/24 09:41:57;;;;;;;;;;;;;;;13.48;90.61;98861.00;1088528;54;955;-83
2023/10/24 09:43:05;;;;;;;;;;;;;;;13.50;90.90;98859.81;1088651;47;937;-82
2023/10/24 09:44:06;;;;;;;;;;;;;;;13.51;90.39;98855.25;1088507;54;994;-81
2023/10/24 09:45:14;;;;;;;;;;;;;;;13.48;90.58;98850.28;1088512;47;888;-82
2023/10/24 09:46:18;;;;;;;;;;;;;;;13.48;90.71;98850.28;1088714;46;1343;-82
2023/10/24 09:47:44;;;;;;;;;;;;;;;13.48;90.68;98856.50;1088640;54;968;-83
2023/10/24 09:48:48;;;;;;;;;;;;;;;13.46;90.49;98853.16;1088336;47;896;-82
2023/10/24 09:49:53;;;;;;;;;;;;;;;13.46;90.30;98855.84;1088360;54;1038;-81
2023/10/24 09:50:57;;;;;;;;;;;;;;;13.42;91.02;98841.13;1088229;54;1123;-82
2023/10/24 09:52:01;;;;;;;;;;;;;;;13.43;90.93;98845.47;1087983;47;1437;-81
2023/10/24 09:53:01;;;;;;;;;;;;;;;13.41;90.92;98840.31;1087956;46;873;-82
2023/10/24 09:54:05;;;;;;;;;;;;;;;13.40;90.54;98845.88;1088020;46;1024;-82
2023/10/24 09:55:11;;;;;;;;;;;;;;;13.40;90.58;98848.56;1088065;47;1042;-81
2023/10/24 09:56:19;;;;;;;;;;;;;;;13.40;90.40;98849.38;1088006;46;1374;-82
2023/10/24 09:57:26;;;;;;;;;;;;;;;13.40;90.43;98851.25;1088411;47;1856;-82
2023/10/24 09:58:35;;;;;;;;;;;;;;;13.41;90.49;98850.25;1088435;54;1029;-83
2023/10/24 09:59:43;;;;;;;;;;;;;;;13.44;90.41;98857.88;1088453;54;1015;-83
2023/10/24 10:00:48;;;;;;;;;;;;;;;13.44;90.52;98855.19;1088376;54;953;-82
2023/10/24 10:01:52;;;;;;;;;;;;;;;13.44;90.19;98857.06;1088358;47;981;-83
2023/10/24 10:02:58;;;;;;;;;;;;;;;13.46;90.56;98847.78;1088399;54;931;-82
2023/10/24 10:04:21;;;;;;;;;;;;;;;13.47;90.44;98854.81;1088525;54;963;-82
2023/10/24 10:05:26;;;;;;;;;;;;;;;13.48;90.66;98851.13;1088330;54;1081;-82
2023/10/24 10:06:28;;;;;;;;;;;;;;;13.47;90.70;98857.50;1088483;54;1347;-83
2023/10/24 10:07:43;;;;;;;;;;;;;;;13.40;90.84;98859.31;1088539;46;949;-83
2023/10/24 10:09:00;;;;;;;;;;;;;;;13.38;90.69;98854.09;1088538;47;956;-82
2023/10/24 10:10:04;;;;;;;;;;;;;;;13.40;90.76;98859.31;1088323;46;880;-80
2023/10/24 10:11:06;;;;;;;;;;;;;;;13.39;90.94;98854.97;1086955;54;1114;-80
2023/10/24 10:12:14;;;;;;;;;;;;;;;13.41;90.68;98850.25;1087095;54;1444;-80
2023/10/24 10:13:16;;;;;;;;;;;;;;;13.35;90.96;98861.69;1087752;54;1043;-80
2023/10/24 10:14:26;;;;;;;;;;;;;;;13.30;91.36;98867.63;1087819;47;1115;-79
2023/10/24 10:15:36;;;;;;;;;;;;;;;13.24;92.03;98861.19;1087813;47;1004;-80
2023/10/24 10:16:46;;;;;;;;;;;;;;;13.24;92.21;98863.84;1087092;54;1297;-79
2023/10/24 10:17:52;;;;;;;;;;;;;;;13.20;92.54;98856.38;1087596;47;1854;-81
2023/10/24 10:19:08;;;;;;;;;;;;;;;13.15;93.01;98850.78;1087510;47;943;-80
2023/10/24 10:20:22;;;;;;;;;;;;;;;13.13;93.47;98853.63;1087472;54;1422;-79
2023/10/24 10:21:30;;;;;;;;;;;;;;;13.10;94.09;98851.34;1087542;46;1113;-80
2023/10/24 10:22:50;;;;;;;;;;;;;;;13.08;94.43;98853.38;1087905;46;944;-81
2023/10/24 10:24:04;;;;;;;;;;;;;;;13.04;94.75;98844.03;1087832;54;1092;-81
2023/10/24 10:25:30;;;;;;;;;;;;;;;13.01;94.96;98847.13;1088060;54;1387;-81
2023/10/24 10:26:43;;;;;;;;;;;;;;;12.92;95.28;98852.59;1088049;54;1270;-81
2023/10/24 10:27:50;;;;;;;;;;;;;;;12.99;95.07;98847.28;1087844;46;1443;-81
2023/10/24 10:29:00;;;;;;;;;;;;;;;13.05;94.96;98854.59;1087625;54;1159;-80
2023/10/24 10:30:07;;;;;;;;;;;;;;;13.06;94.68;98847.38;1087881;47;1383;-83
2023/10/24 10:31:25;;;;;;;;;;;;;;;13.04;95.19;98846.72;1088161;54;1025;-84
2023/10/24 10:33:59;;;;;;;;;;;;;;;13.10;95.45;98836.06;1088374;47;937;-81
2023/10/24 10:35:25;;;;;;;;;;;;;;;13.12;94.99;98833.22;1088363;54;913;-83
2023/10/24 10:40:53;;;;;;;;;;;;;;;13.30;94.56;98821.19;1087784;54;1151;-81
2023/10/24 10:42:07;;;;;;;;;;;;;;;13.34;94.23;98817.09;1088352;54;1142;-81
2023/10/24 10:44:48;;;;;;;;;;;;;;;13.44;93.93;98811.44;1088092;46;947;-81
2023/10/24 10:46:15;;;;;;;;;;;;;;;13.44;93.79;98811.44;1087860;54;1089;-80
2023/10/24 10:47:32;;;;;;;;;;;;;;;13.40;94.51;98819.03;1087844;47;963;-79
2023/10/24 10:53:41;;;;;;;;;;;;;;;13.38;94.38;98807.63;1088368;46;950;-82
2023/10/24 10:54:44;;;;;;;;;;;;;;;13.44;94.91;98800.69;1087938;47;956;-81
2023/10/24 10:55:57;;;;;;;;;;;;;;;13.45;94.32;98797.81;1088220;54;1004;-81
2023/10/24 10:57:03;;;;;;;;;;;;;;;13.48;94.24;98788.53;1087932;47;1267;-81
2023/10/24 10:59:48;;;;;;;;;;;;;;;13.45;94.94;98802.34;1088116;47;963;-82
2023/10/24 11:00:58;;;;;;;;;;;;;;;13.46;94.78;98796.78;1088033;54;983;-81
2023/10/24 11:02:08;;;;;;;;;;;;;;;13.48;94.50;98793.91;1087936;47;1014;-81
2023/10/24 11:03:17;;;;;;;;;;;;;;;13.46;95.04;98794.09;1088072;54;978;-80
2023/10/24 11:04:21;;;;;;;;;;;;;;;13.50;94.81;98786.50;1087975;47;978;-81
2023/10/24 11:05:39;;;;;;;;;;;;;;;13.51;94.69;98785.47;1088040;54;883;-81
2023/10/24 11:06:52;;;;;;;;;;;;;;;13.52;94.87;98782.56;1088063;46;1399;-79
2023/10/24 11:07:54;;;;;;;;;;;;;;;13.56;94.97;98785.69;1088083;47;960;-80
2023/10/24 11:10:59;;;;;;;;;;;;;;;13.64;94.76;98779.34;1087896;46;1004;-79
2023/10/24 11:14:06;;;;;;;;;;;;;;;13.69;94.30;98776.94;1088045;47;937;-80
2023/10/24 11:18:26;;;;;;;;;;;;;;;13.84;93.70;98790.22;1087544;54;1858;-80
2023/10/24 11:19:33;;;;;;;;;;;;;;;13.87;93.81;98790.69;1088095;47;947;-81
2023/10/24 11:20:43;;;;;;;;;;;;;;;13.89;93.47;98787.78;1087940;47;964;-80
2023/10/24 11:21:45;;;;;;;;;;;;;;;13.93;93.18;98785.53;1087996;54;895;-81
2023/10/24 11:23:18;;;;;;;;;;;;;;;13.93;92.98;98783.72;1088059;54;1024;-81
2023/10/24 11:37:39;;;;;;;;;;;;;;;14.03;93.54;98772.59;1088456;47;1355;-81
2023/10/24 11:38:51;;;;;;;;;;;;;;;14.03;93.49;98768.03;1088341;47;1404;-81
2023/10/24 11:40:15;;;;;;;;;;;;;;;13.97;93.84;98771.53;1088387;47;1478;-80
2023/10/24 11:41:21;;;;;;;;;;;;;;;13.95;94.04;98772.75;1088343;54;986;-82
2023/10/24 11:42:29;;;;;;;;;;;;;;;13.99;93.99;98768.63;1088416;54;1179;-81
2023/10/24 11:43:51;;;;;;;;;;;;;;;;;;;;;
2023/10/24 11:45:09;;;;;;;;;;;;;;;13.97;94.12;98762.63;1088568;54;788;-80
2023/10/24 11:46:24;;;;;;;;;;;;;;;13.91;94.11;98769.63;1088469;47;1385;-81
2023/10/24 11:47:33;;;;;;;;;;;;;;;13.84;94.67;98768.75;1088232;47;1550;-81
2023/10/24 11:48:47;;;;;;;;;;;;;;;13.84;94.88;98766.06;1088276;54;929;-81
2023/10/24 11:50:07;;;;;;;;;;;;;;;13.85;94.91;98765.88;1088390;54;1547;-81
2023/10/24 11:51:12;;;;;;;;;;;;;;;13.88;94.88;98770.03;1088704;47;1619;-81
2023/10/24 11:52:22;;;;;;;;;;;;;;;13.88;95.02;98765.50;1088545;47;1533;-81
2023/10/24 11:53:23;;;;;;;;;;;;;;;13.88;94.99;98770.03;1088663;54;855;-80
2023/10/24 11:54:34;;;;;;;;;;;;;;;13.89;95.25;98761.75;1088336;47;967;-81
2023/10/24 11:55:35;;;;;;;;;;;;;;;13.88;95.25;98768.19;1088498;47;999;-81
2023/10/24 11:58:26;;;;;;;;;;;;;;;13.85;95.46;98771.25;1088423;47;1874;-81
2023/10/24 11:59:33;;;;;;;;;;;;;;;13.89;95.28;98761.75;1088168;47;1092;-80
2023/10/24 12:00:41;;;;;;;;;;;;;;;13.93;95.53;98750.63;1088235;47;918;-80
2023/10/24 12:01:59;;;;;;;;;;;;;;;13.98;95.44;98753.56;1088293;54;987;-81
2023/10/24 12:03:14;;;;;;;;;;;;;;;14.03;95.05;98751.09;1088242;47;991;-80
2023/10/24 12:04:16;;;;;;;;;;;;;;;14.05;95.28;98754.41;1088308;47;909;-82
2023/10/24 12:05:20;;;;;;;;;;;;;;;14.04;94.75;98745.50;1088234;54;1031;-80
2023/10/24 12:06:25;;;;;;;;;;;;;;;14.03;94.94;98751.09;1088180;47;1304;-81
2023/10/24 12:07:33;;;;;;;;;;;;;;;14.05;94.77;98754.41;1088155;47;886;-81
2023/10/24 12:08:37;;;;;;;;;;;;;;;14.09;94.78;98744.91;1088342;54;1464;-81
2023/10/24 12:09:40;;;;;;;;;;;;;;;14.10;94.84;98746.56;1088326;54;1006;-81
2023/10/24 12:10:57;;;;;;;;;;;;;;;14.10;94.78;98743.88;1088236;47;1063;-81
2023/10/24 12:12:04;;;;;;;;;;;;;;;14.13;94.88;98740.81;1088154;54;991;-81
2023/10/24 12:13:09;;;;;;;;;;;;;;;14.15;94.94;98746.81;1088083;54;1042;-81
2023/10/24 12:14:10;;;;;;;;;;;;;;;14.13;94.92;98748.88;1088096;54;1012;-82
2023/10/24 12:15:11;;;;;;;;;;;;;;;14.14;94.74;98741.63;1087972;47;961;-81
2023/10/24 12:16:14;;;;;;;;;;;;;;;14.14;94.38;98742.47;1087834;47;1373;-80
2023/10/24 12:17:15;;;;;;;;;;;;;;;14.15;94.33;98744.13;1088289;47;972;-82
2023/10/24 12:18:19;;;;;;;;;;;;;;;14.17;94.28;98742.06;1087982;47;1851;-81
2023/10/24 12:19:20;;;;;;;;;;;;;;;14.18;94.33;98746.41;1088239;46;992;-81
2023/10/24 12:20:28;;;;;;;;;;;;;;;14.12;94.53;98747.22;1088195;47;918;-81
2023/10/24 12:21:31;;;;;;;;;;;;;;;14.11;94.59;98744.72;1088251;54;1015;-80
2023/10/24 12:22:46;;;;;;;;;;;;;;;14.08;94.73;98742.44;1088180;54;1020;-81
2023/10/24 12:23:48;;;;;;;;;;;;;;;14.11;94.90;98737.47;1088463;46;939;-81
2023/10/24 12:24:54;;;;;;;;;;;;;;;14.15;94.85;98745.97;1088317;47;985;-81
2023/10/24 12:26:05;;;;;;;;;;;;;;;14.09;94.76;98750.28;1088320;47;982;-81
2023/10/24 12:27:15;;;;;;;;;;;;;;;14.08;94.94;98745.13;1088267;46;1248;-81
2023/10/24 12:28:16;;;;;;;;;;;;;;;14.11;94.94;98744.72;1088396;54;997;-81
2023/10/24 12:29:19;;;;;;;;;;;;;;;14.11;95.11;98747.41;1088342;54;1084;-81
2023/10/24 12:30:20;;;;;;;;;;;;;;;14.12;94.87;98743.69;1088334;47;973;-81
2023/10/24 12:31:35;;;;;;;;;;;;;;;14.13;94.94;98735.44;1088308;54;958;-82
2023/10/24 12:32:37;;;;;;;;;;;;;;;14.16;94.98;98740.41;1088421;54;1034;-81
2023/10/24 12:33:46;;;;;;;;;;;;;;;14.19;95.07;98734.63;1088468;47;908;-80
2023/10/24 12:34:48;;;;;;;;;;;;;;;14.22;94.98;98732.56;1088422;46;938;-81
2023/10/24 12:35:55;;;;;;;;;;;;;;;14.26;94.90;98728.47;1088223;47;1174;-81
2023/10/24 12:37:02;;;;;;;;;;;;;;;14.27;94.49;98732.78;1088123;46;1336;-81
2023/10/24 12:38:05;;;;;;;;;;;;;;;14.27;94.44;98724.72;1088248;47;1853;-80
2023/10/24 12:39:09;;;;;;;;;;;;;;;14.23;94.44;98734.22;1088333;47;1224;-81
2023/10/24 12:40:15;;;;;;;;;;;;;;;14.16;94.55;98729.66;1088377;47;902;-80
2023/10/24 12:41:25;;;;;;;;;;;;;;;14.15;94.82;98737.91;1088356;54;899;-81
2023/10/24 12:42:29;;;;;;;;;;;;;;;14.04;95.31;98733.94;1088356;47;973;-81
2023/10/24 12:43:30;;;;;;;;;;;;;;;14.01;96.08;98735.19;1088352;54;1015;-80
2023/10/24 12:44:36;;;;;;;;;;;;;;;13.98;96.16;98734.75;1088384;54;961;-82
2023/10/24 12:45:37;;;;;;;;;;;;;;;13.91;96.78;98742.78;1088369;54;960;-82
2023/10/24 12:46:41;;;;;;;;;;;;;;;13.86;97.38;98745.19;1088301;47;1328;-81
2023/10/24 12:47:42;;;;;;;;;;;;;;;13.82;98.58;98747.47;1088374;54;965;-81
2023/10/24 12:48:52;;;;;;;;;;;;;;;13.78;98.24;98742.69;1088275;47;1084;-80
2023/10/24 12:49:53;;;;;;;;;;;;;;;13.72;98.87;98738.91;1088343;47;938;-81
2023/10/24 12:51:02;;;;;;;;;;;;;;;13.75;98.66;98737.69;1088343;47;962;-80
2023/10/24 12:52:03;;;;;;;;;;;;;;;13.80;97.93;98732.56;1088309;47;931;-81
2023/10/24 12:53:06;;;;;;;;;;;;;;;13.78;97.82;98726.56;1088287;47;942;-81
2023/10/24 12:54:10;;;;;;;;;;;;;;;13.76;97.95;98728.63;1088546;46;1022;-80
2023/10/24 12:55:11;;;;;;;;;;;;;;;13.81;97.67;98727.00;1088133;47;966;-79
2023/10/24 12:56:15;;;;;;;;;;;;;;;13.82;97.84;98723.28;1088180;47;1284;-81
2023/10/24 12:57:18;;;;;;;;;;;;;;;13.82;97.40;98720.59;1088135;47;878;-80
2023/10/24 12:58:23;;;;;;;;;;;;;;;13.85;97.56;98727.44;1088161;54;1849;-80
2023/10/24 12:59:24;;;;;;;;;;;;;;;13.87;97.16;98726.22;1088139;54;1067;-80
2023/10/24 13:00:29;;;;;;;;;;;;;;;13.89;97.13;98716.09;1088047;47;943;-80
2023/10/24 13:01:30;;;;;;;;;;;;;;;13.93;96.79;98713.00;1088009;54;978;-80
2023/10/24 13:02:36;;;;;;;;;;;;;;;13.95;96.69;98713.66;1088128;54;957;-80
2023/10/24 13:03:38;;;;;;;;;;;;;;;13.97;96.83;98714.28;1088190;54;879;-80
2023/10/24 13:04:41;;;;;;;;;;;;;;;13.99;96.84;98715.75;1088145;46;964;-79
2023/10/24 13:05:42;;;;;;;;;;;;;;;14.00;96.52;98713.88;1088120;47;947;-80
2023/10/24 13:06:45;;;;;;;;;;;;;;;13.98;96.70;98711.38;1088062;54;1375;-80
2023/10/24 13:07:49;;;;;;;;;;;;;;;14.00;96.27;98708.50;1088137;54;970;-80
2023/10/24 13:08:49;;;;;;;;;;;;;;;14.00;96.48;98714.72;1088036;47;928;-81
2023/10/24 13:10:03;;;;;;;;;;;;;;;13.94;96.55;98709.31;1088099;46;1003;-80
2023/10/24 13:11:08;;;;;;;;;;;;;;;13.96;96.36;98715.31;1088036;54;1014;-81
2023/10/24 13:12:12;;;;;;;;;;;;;;;13.97;96.52;98711.59;1087986;54;1023;-80
2023/10/24 13:13:16;;;;;;;;;;;;;;;13.96;96.58;98707.25;1088051;47;936;-81
2023/10/24 13:14:16;;;;;;;;;;;;;;;13.95;96.51;98705.59;1088063;46;940;-81
2023/10/24 13:15:20;;;;;;;;;;;;;;;13.83;97.68;98713.38;1087800;47;1067;-80
2023/10/24 13:16:21;;;;;;;;;;;;;;;13.80;98.38;98709.22;1088161;46;1182;-81
2023/10/24 13:17:27;;;;;;;;;;;;;;;13.83;98.13;98706.16;1088147;47;941;-81
2023/10/24 13:18:31;;;;;;;;;;;;;;;13.84;97.71;98715.88;1087671;54;1872;-81
2023/10/24 13:19:34;;;;;;;;;;;;;;;13.88;97.84;98711.75;1088055;54;990;-80
2023/10/24 13:21:06;;;;;;;;;;;;;;;13.93;97.48;98713.00;1088139;54;999;-81
2023/10/24 13:22:45;;;;;;;;;;;;;;;13.86;98.36;98708.44;1088243;47;923;-81
2023/10/24 13:24:07;;;;;;;;;;;;;;;13.85;98.83;98716.69;1088344;47;1506;-81
2023/10/24 13:27:25;;;;;;;;;;;;;;;13.88;99.28;98711.75;1088292;47;1559;-80
2023/10/24 13:28:33;;;;;;;;;;;;;;;13.95;98.95;98706.41;1088445;47;1491;-80
2023/10/24 13:29:39;;;;;;;;;;;;;;;13.99;98.51;98709.50;1088469;54;1034;-80
2023/10/24 13:30:50;;;;;;;;;;;;;;;14.01;98.37;98710.16;1088535;54;980;-81
2023/10/24 13:32:01;;;;;;;;;;;;;;;14.03;97.87;98705.41;1088519;46;969;-79
2023/10/24 13:33:31;;;;;;;;;;;;;;;14.05;97.80;98711.44;1088503;46;1502;-81
2023/10/24 13:34:57;;;;;;;;;;;;;;;14.05;97.88;98711.44;1088605;54;971;-82
2023/10/24 13:43:18;;;;;;;;;;;;;;;14.02;97.50;98701.06;1087953;54;1193;-81
2023/10/24 13:44:32;;;;;;;;;;;;;;;14.06;97.20;98698.81;1088280;46;888;-80
2023/10/24 13:46:01;;;;;;;;;;;;;;;14.09;96.66;98696.53;1088213;54;1049;-82
2023/10/24 13:49:02;;;;;;;;;;;;;;;14.11;96.35;98697.19;1088196;47;923;-80
2023/10/24 13:52:10;;;;;;;;;;;;;;;14.13;95.98;98703.19;1088154;47;1195;-81
2023/10/24 13:53:14;;;;;;;;;;;;;;;14.11;95.82;98694.50;1088369;47;966;-82
2023/10/24 13:55:53;;;;;;;;;;;;;;;14.05;95.70;98695.31;1088225;47;1025;-83
2023/10/24 13:56:56;;;;;;;;;;;;;;;14.04;95.29;98701.69;1088247;47;1234;-82
2023/10/24 13:58:05;;;;;;;;;;;;;;;14.06;95.37;98702.34;1088480;54;903;-81
2023/10/24 13:59:20;;;;;;;;;;;;;;;14.11;95.50;98694.50;1088365;46;1858;-81
2023/10/24 14:04:06;;;;;;;;;;;;;;;14.17;94.77;98688.31;1088898;47;926;-81
2023/10/24 14:05:25;;;;;;;;;;;;;;;14.19;94.58;98686.25;1088731;46;1018;-80
2023/10/24 14:06:36;;;;;;;;;;;;;;;14.19;93.46;98691.63;1088761;46;1318;-81
2023/10/24 15:43:09;;;;;;;;;;;;;;;14.18;93.38;98660.41;1088604;47;1224;-82
2023/10/24 15:44:43;;;;;;;;;;;;;;;14.19;93.41;98663.94;1088686;47;1484;-80
2023/10/24 15:47:55;;;;;;;;;;;;;;;14.26;92.94;98670.16;1088660;47;1070;-80